sensor_id;sensor_type;location;lat;lon;timestamp;temperature;humidity
41965;DHT22;50120;53.250;8.702;2022-08-06T00:01:37;11.50;99.90
41965;DHT22;50120;53.250;8.702;2022-08-06T00:04:02;11.50;99.90
41965;DHT22;50120;53.250;8.702;2022-08-06T00:06:31;11.50;99.90
41965;DHT22;50120;53.250;8.702;2022-08-06T00:08:56;11.50;99.90
41965;DHT22;50120;53.250;8.702;2022-08-06T00:11:22;11.50;99.90
41965;DHT22;50120;53.250;8.702;2022-08-06T00:13:48;11.50;99.90
41965;DHT22;50120;53.250;8.702;2022-08-06T00:16:13;11.50;99.90
41965;DHT22;50120;53.250;8.702;2022-08-06T00:18:39;11.50;99.90
41965;DHT22;50120;53.250;8.702;2022-08-06T00:21:05;11.40;99.90
41965;DHT22;50120;53.250;8.702;2022-08-06T00:23:31;11.50;99.90
41965;DHT22;50120;53.250;8.702;2022-08-06T00:25:57;11.40;99.90
41965;DHT22;50120;53.250;8.702;2022-08-06T00:28:24;11.40;99.90
41965;DHT22;50120;53.250;8.702;2022-08-06T00:30:51;11.40;99.90
41965;DHT22;50120;53.250;8.702;2022-08-06T00:33:16;11.40;99.90
41965;DHT22;50120;53.250;8.702;2022-08-06T00:35:43;11.40;99.90
41965;DHT22;50120;53.250;8.702;2022-08-06T00:38:09;11.30;99.90
41965;DHT22;50120;53.250;8.702;2022-08-06T00:40:35;11.30;99.90
41965;DHT22;50120;53.250;8.702;2022-08-06T00:43:04;11.30;99.90
41965;DHT22;50120;53.250;8.702;2022-08-06T00:45:30;11.30;99.90
41965;DHT22;50120;53.250;8.702;2022-08-06T00:47:56;11.30;99.90
41965;DHT22;50120;53.250;8.702;2022-08-06T00:50:22;11.30;99.90
41965;DHT22;50120;53.250;8.702;2022-08-06T00:52:48;11.30;99.90
41965;DHT22;50120;53.250;8.702;2022-08-06T00:55:14;11.20;99.90
41965;DHT22;50120;53.250;8.702;2022-08-06T00:57:40;11.20;99.90
41965;DHT22;50120;53.250;8.702;2022-08-06T01:00:07;11.20;99.90
41965;DHT22;50120;53.250;8.702;2022-08-06T01:02:33;11.20;99.90
41965;DHT22;50120;53.250;8.702;2022-08-06T01:04:59;11.20;99.90
41965;DHT22;50120;53.250;8.702;2022-08-06T01:07:25;11.20;99.90
41965;DHT22;50120;53.250;8.702;2022-08-06T01:09:51;11.10;99.90
41965;DHT22;50120;53.250;8.702;2022-08-06T01:12:17;11.10;99.90
41965;DHT22;50120;53.250;8.702;2022-08-06T01:14:43;11.10;99.90
41965;DHT22;50120;53.250;8.702;2022-08-06T01:28:20;11.00;99.90
41965;DHT22;50120;53.250;8.702;2022-08-06T01:30:52;11.00;99.90
41965;DHT22;50120;53.250;8.702;2022-08-06T01:35:51;11.00;99.90
41965;DHT22;50120;53.250;8.702;2022-08-06T01:40:49;10.90;99.90
41965;DHT22;50120;53.250;8.702;2022-08-06T01:43:18;10.90;99.90
41965;DHT22;50120;53.250;8.702;2022-08-06T01:45:46;10.90;99.90
41965;DHT22;50120;53.250;8.702;2022-08-06T01:48:21;10.90;99.90
41965;DHT22;50120;53.250;8.702;2022-08-06T01:50:49;10.90;99.90
41965;DHT22;50120;53.250;8.702;2022-08-06T01:53:23;10.90;99.90
41965;DHT22;50120;53.250;8.702;2022-08-06T01:55:54;10.90;99.90
41965;DHT22;50120;53.250;8.702;2022-08-06T01:58:27;10.90;99.90
41965;DHT22;50120;53.250;8.702;2022-08-06T02:00:54;10.90;99.90
41965;DHT22;50120;53.250;8.702;2022-08-06T02:03:26;10.80;99.90
41965;DHT22;50120;53.250;8.702;2022-08-06T02:05:55;10.90;99.90
41965;DHT22;50120;53.250;8.702;2022-08-06T02:08:26;10.90;99.90
41965;DHT22;50120;53.250;8.702;2022-08-06T02:10:53;10.90;99.90
41965;DHT22;50120;53.250;8.702;2022-08-06T02:13:21;10.90;99.90
41965;DHT22;50120;53.250;8.702;2022-08-06T02:15:48;10.90;99.90
41965;DHT22;50120;53.250;8.702;2022-08-06T02:18:17;10.90;99.90
41965;DHT22;50120;53.250;8.702;2022-08-06T02:20:47;10.90;99.90
41965;DHT22;50120;53.250;8.702;2022-08-06T02:23:20;10.90;99.90
41965;DHT22;50120;53.250;8.702;2022-08-06T02:25:48;10.90;99.90
41965;DHT22;50120;53.250;8.702;2022-08-06T02:28:18;10.80;99.90
41965;DHT22;50120;53.250;8.702;2022-08-06T02:30:47;10.80;99.90
41965;DHT22;50120;53.250;8.702;2022-08-06T02:33:15;10.80;99.90
41965;DHT22;50120;53.250;8.702;2022-08-06T02:35:54;10.80;99.90
41965;DHT22;50120;53.250;8.702;2022-08-06T02:38:34;10.80;99.90
41965;DHT22;50120;53.250;8.702;2022-08-06T02:41:12;10.80;99.90
41965;DHT22;50120;53.250;8.702;2022-08-06T02:43:44;10.80;99.90
41965;DHT22;50120;53.250;8.702;2022-08-06T02:46:25;10.80;99.90
41965;DHT22;50120;53.250;8.702;2022-08-06T02:48:59;10.80;99.90
41965;DHT22;50120;53.250;8.702;2022-08-06T02:51:30;10.80;99.90
41965;DHT22;50120;53.250;8.702;2022-08-06T02:56:27;10.70;99.90
41965;DHT22;50120;53.250;8.702;2022-08-06T02:58:56;10.70;99.90
41965;DHT22;50120;53.250;8.702;2022-08-06T03:01:31;10.70;99.90
41965;DHT22;50120;53.250;8.702;2022-08-06T03:03:58;10.60;99.90
41965;DHT22;50120;53.250;8.702;2022-08-06T03:06:28;10.70;99.90
41965;DHT22;50120;53.250;8.702;2022-08-06T03:08:56;10.60;99.90
41965;DHT22;50120;53.250;8.702;2022-08-06T03:11:24;10.60;99.90
41965;DHT22;50120;53.250;8.702;2022-08-06T03:13:51;10.60;99.90
41965;DHT22;50120;53.250;8.702;2022-08-06T03:16:19;10.60;99.90
41965;DHT22;50120;53.250;8.702;2022-08-06T03:18:45;10.50;99.90
41965;DHT22;50120;53.250;8.702;2022-08-06T03:21:12;10.50;99.90
41965;DHT22;50120;53.250;8.702;2022-08-06T03:23:41;10.50;99.90
41965;DHT22;50120;53.250;8.702;2022-08-06T03:26:08;10.50;99.90
41965;DHT22;50120;53.250;8.702;2022-08-06T03:28:36;10.50;99.90
41965;DHT22;50120;53.250;8.702;2022-08-06T03:31:03;10.40;99.90
41965;DHT22;50120;53.250;8.702;2022-08-06T03:33:29;10.40;99.90
41965;DHT22;50120;53.250;8.702;2022-08-06T03:35:58;10.30;99.90
41965;DHT22;50120;53.250;8.702;2022-08-06T03:38:25;10.30;99.90
41965;DHT22;50120;53.250;8.702;2022-08-06T03:40:52;10.30;99.90
41965;DHT22;50120;53.250;8.702;2022-08-06T03:43:19;10.30;99.90
41965;DHT22;50120;53.250;8.702;2022-08-06T03:45:51;10.30;99.90
41965;DHT22;50120;53.250;8.702;2022-08-06T03:48:21;10.20;99.90
41965;DHT22;50120;53.250;8.702;2022-08-06T03:50:49;10.20;99.90
41965;DHT22;50120;53.250;8.702;2022-08-06T03:53:20;10.20;99.90
41965;DHT22;50120;53.250;8.702;2022-08-06T03:55:47;10.20;99.90
41965;DHT22;50120;53.250;8.702;2022-08-06T03:58:14;10.20;99.90
41965;DHT22;50120;53.250;8.702;2022-08-06T04:00:51;10.20;99.90
41965;DHT22;50120;53.250;8.702;2022-08-06T04:03:19;10.20;99.90
41965;DHT22;50120;53.250;8.702;2022-08-06T04:05:46;10.20;99.90
41965;DHT22;50120;53.250;8.702;2022-08-06T04:08:12;10.10;99.90
41965;DHT22;50120;53.250;8.702;2022-08-06T04:10:42;10.10;99.90
41965;DHT22;50120;53.250;8.702;2022-08-06T04:13:13;10.20;99.90
41965;DHT22;50120;53.250;8.702;2022-08-06T04:15:41;10.20;99.90
41965;DHT22;50120;53.250;8.702;2022-08-06T04:18:14;10.20;99.90
41965;DHT22;50120;53.250;8.702;2022-08-06T04:20:44;10.20;99.90
41965;DHT22;50120;53.250;8.702;2022-08-06T04:23:11;10.20;99.90
41965;DHT22;50120;53.250;8.702;2022-08-06T04:25:40;10.20;99.90
41965;DHT22;50120;53.250;8.702;2022-08-06T04:28:09;10.20;99.90
41965;DHT22;50120;53.250;8.702;2022-08-06T04:30:35;10.20;99.90
41965;DHT22;50120;53.250;8.702;2022-08-06T04:33:04;10.20;99.90
41965;DHT22;50120;53.250;8.702;2022-08-06T04:35:31;10.20;99.90
41965;DHT22;50120;53.250;8.702;2022-08-06T04:37:58;10.20;99.90
41965;DHT22;50120;53.250;8.702;2022-08-06T04:40:26;10.20;99.90
41965;DHT22;50120;53.250;8.702;2022-08-06T04:42:52;10.20;99.90
41965;DHT22;50120;53.250;8.702;2022-08-06T04:45:18;10.20;99.90
41965;DHT22;50120;53.250;8.702;2022-08-06T04:47:46;10.30;99.90
41965;DHT22;50120;53.250;8.702;2022-08-06T04:50:13;10.30;99.90
41965;DHT22;50120;53.250;8.702;2022-08-06T04:52:39;10.30;99.90
41965;DHT22;50120;53.250;8.702;2022-08-06T04:55:05;10.30;99.90
41965;DHT22;50120;53.250;8.702;2022-08-06T04:57:32;10.30;99.90
41965;DHT22;50120;53.250;8.702;2022-08-06T04:59:58;10.40;99.90
41965;DHT22;50120;53.250;8.702;2022-08-06T05:02:24;10.40;99.90
41965;DHT22;50120;53.250;8.702;2022-08-06T05:04:50;10.40;99.90
41965;DHT22;50120;53.250;8.702;2022-08-06T05:07:29;10.40;99.90
41965;DHT22;50120;53.250;8.702;2022-08-06T05:09:56;10.50;99.90
41965;DHT22;50120;53.250;8.702;2022-08-06T05:12:29;10.50;99.90
41965;DHT22;50120;53.250;8.702;2022-08-06T05:15:00;10.50;99.90
41965;DHT22;50120;53.250;8.702;2022-08-06T05:17:33;10.60;99.90
41965;DHT22;50120;53.250;8.702;2022-08-06T05:20:20;10.60;99.90
41965;DHT22;50120;53.250;8.702;2022-08-06T05:22:53;10.70;99.90
41965;DHT22;50120;53.250;8.702;2022-08-06T05:25:20;10.70;99.90
41965;DHT22;50120;53.250;8.702;2022-08-06T05:27:46;10.80;99.90
41965;DHT22;50120;53.250;8.702;2022-08-06T05:30:12;10.80;99.90
41965;DHT22;50120;53.250;8.702;2022-08-06T05:32:45;10.90;99.90
41965;DHT22;50120;53.250;8.702;2022-08-06T05:35:12;11.00;99.90
41965;DHT22;50120;53.250;8.702;2022-08-06T05:37:39;11.00;99.90
41965;DHT22;50120;53.250;8.702;2022-08-06T05:40:07;11.10;99.90
41965;DHT22;50120;53.250;8.702;2022-08-06T05:42:33;11.20;99.90
41965;DHT22;50120;53.250;8.702;2022-08-06T05:44:59;11.30;99.90
41965;DHT22;50120;53.250;8.702;2022-08-06T05:47:28;11.40;99.90
41965;DHT22;50120;53.250;8.702;2022-08-06T05:50:05;11.50;99.90
41965;DHT22;50120;53.250;8.702;2022-08-06T05:52:55;11.50;99.90
41965;DHT22;50120;53.250;8.702;2022-08-06T05:55:27;11.60;99.90
41965;DHT22;50120;53.250;8.702;2022-08-06T05:58:02;11.70;99.90
41965;DHT22;50120;53.250;8.702;2022-08-06T06:00:31;11.80;99.90
41965;DHT22;50120;53.250;8.702;2022-08-06T06:02:59;11.90;99.90
41965;DHT22;50120;53.250;8.702;2022-08-06T06:05:25;12.00;99.90
41965;DHT22;50120;53.250;8.702;2022-08-06T06:07:51;12.10;99.90
41965;DHT22;50120;53.250;8.702;2022-08-06T06:10:22;12.20;99.90
41965;DHT22;50120;53.250;8.702;2022-08-06T06:12:49;12.30;99.90
41965;DHT22;50120;53.250;8.702;2022-08-06T06:15:16;12.40;99.90
41965;DHT22;50120;53.250;8.702;2022-08-06T06:18:10;12.50;99.90
41965;DHT22;50120;53.250;8.702;2022-08-06T06:23:52;12.80;99.90
41965;DHT22;50120;53.250;8.702;2022-08-06T06:26:32;12.90;99.90
41965;DHT22;50120;53.250;8.702;2022-08-06T06:29:59;13.00;99.90
41965;DHT22;50120;53.250;8.702;2022-08-06T06:32:04;13.10;99.90
41965;DHT22;50120;53.250;8.702;2022-08-06T06:34:54;13.20;99.90
41965;DHT22;50120;53.250;8.702;2022-08-06T06:37:24;13.40;99.90
41965;DHT22;50120;53.250;8.702;2022-08-06T06:42:31;13.60;99.90
41965;DHT22;50120;53.250;8.702;2022-08-06T06:47:56;13.80;99.90
41965;DHT22;50120;53.250;8.702;2022-08-06T06:50:27;13.90;99.90
41965;DHT22;50120;53.250;8.702;2022-08-06T06:52:55;14.10;99.90
41965;DHT22;50120;53.250;8.702;2022-08-06T06:56:03;14.20;99.90
41965;DHT22;50120;53.250;8.702;2022-08-06T06:58:17;14.30;99.90
41965;DHT22;50120;53.250;8.702;2022-08-06T07:00:44;14.50;99.90
41965;DHT22;50120;53.250;8.702;2022-08-06T07:03:12;14.60;99.90
41965;DHT22;50120;53.250;8.702;2022-08-06T07:05:40;14.70;99.90
41965;DHT22;50120;53.250;8.702;2022-08-06T07:08:10;14.70;99.90
41965;DHT22;50120;53.250;8.702;2022-08-06T07:10:38;14.80;99.90
41965;DHT22;50120;53.250;8.702;2022-08-06T07:13:06;14.90;99.90
41965;DHT22;50120;53.250;8.702;2022-08-06T07:15:34;15.00;99.90
41965;DHT22;50120;53.250;8.702;2022-08-06T07:18:01;15.10;99.90
41965;DHT22;50120;53.250;8.702;2022-08-06T07:20:30;15.20;99.90
41965;DHT22;50120;53.250;8.702;2022-08-06T07:22:59;15.40;99.90
41965;DHT22;50120;53.250;8.702;2022-08-06T07:25:29;15.50;99.90
41965;DHT22;50120;53.250;8.702;2022-08-06T07:27:55;15.60;99.90
41965;DHT22;50120;53.250;8.702;2022-08-06T07:30:21;15.60;99.90
41965;DHT22;50120;53.250;8.702;2022-08-06T07:32:48;15.80;99.90
41965;DHT22;50120;53.250;8.702;2022-08-06T07:35:18;15.80;99.90
41965;DHT22;50120;53.250;8.702;2022-08-06T07:37:54;16.00;99.90
41965;DHT22;50120;53.250;8.702;2022-08-06T07:40:34;16.10;99.90
41965;DHT22;50120;53.250;8.702;2022-08-06T07:43:15;16.20;99.90
41965;DHT22;50120;53.250;8.702;2022-08-06T07:45:42;16.30;99.90
41965;DHT22;50120;53.250;8.702;2022-08-06T07:48:11;16.40;99.90
41965;DHT22;50120;53.250;8.702;2022-08-06T07:50:39;16.50;99.90
41965;DHT22;50120;53.250;8.702;2022-08-06T07:53:05;16.60;99.90
41965;DHT22;50120;53.250;8.702;2022-08-06T07:55:33;16.60;99.90
41965;DHT22;50120;53.250;8.702;2022-08-06T07:58:02;16.70;99.90
41965;DHT22;50120;53.250;8.702;2022-08-06T08:00:29;16.80;99.90
41965;DHT22;50120;53.250;8.702;2022-08-06T08:02:55;16.90;99.90
41965;DHT22;50120;53.250;8.702;2022-08-06T08:05:41;16.90;99.90
41965;DHT22;50120;53.250;8.702;2022-08-06T08:08:27;17.00;99.90
41965;DHT22;50120;53.250;8.702;2022-08-06T08:10:55;17.10;99.90
41965;DHT22;50120;53.250;8.702;2022-08-06T08:13:24;17.30;99.90
41965;DHT22;50120;53.250;8.702;2022-08-06T08:15:51;17.40;99.90
41965;DHT22;50120;53.250;8.702;2022-08-06T08:18:17;17.50;99.90
41965;DHT22;50120;53.250;8.702;2022-08-06T08:20:44;17.50;99.90
41965;DHT22;50120;53.250;8.702;2022-08-06T08:23:13;17.60;99.90
41965;DHT22;50120;53.250;8.702;2022-08-06T08:25:40;17.70;99.90
41965;DHT22;50120;53.250;8.702;2022-08-06T08:28:06;17.70;99.90
41965;DHT22;50120;53.250;8.702;2022-08-06T08:30:33;17.60;99.90
41965;DHT22;50120;53.250;8.702;2022-08-06T08:32:58;17.50;99.90
41965;DHT22;50120;53.250;8.702;2022-08-06T08:35:24;17.50;99.90
41965;DHT22;50120;53.250;8.702;2022-08-06T08:37:50;17.50;99.90
41965;DHT22;50120;53.250;8.702;2022-08-06T08:40:16;17.60;99.90
41965;DHT22;50120;53.250;8.702;2022-08-06T08:42:43;17.60;99.90
41965;DHT22;50120;53.250;8.702;2022-08-06T08:45:10;17.50;99.90
41965;DHT22;50120;53.250;8.702;2022-08-06T08:47:42;17.50;99.90
41965;DHT22;50120;53.250;8.702;2022-08-06T08:50:09;17.40;99.90
41965;DHT22;50120;53.250;8.702;2022-08-06T08:52:38;17.40;99.90
41965;DHT22;50120;53.250;8.702;2022-08-06T08:55:06;17.50;99.90
41965;DHT22;50120;53.250;8.702;2022-08-06T08:57:34;17.70;99.90
41965;DHT22;50120;53.250;8.702;2022-08-06T09:00:05;17.80;99.90
41965;DHT22;50120;53.250;8.702;2022-08-06T09:02:32;18.10;99.90
41965;DHT22;50120;53.250;8.702;2022-08-06T09:04:58;18.30;99.90
41965;DHT22;50120;53.250;8.702;2022-08-06T09:07:25;18.30;99.90
41965;DHT22;50120;53.250;8.702;2022-08-06T09:09:53;18.20;99.90
41965;DHT22;50120;53.250;8.702;2022-08-06T09:12:19;18.10;99.90
41965;DHT22;50120;53.250;8.702;2022-08-06T09:14:45;18.10;99.90
41965;DHT22;50120;53.250;8.702;2022-08-06T09:17:12;18.10;99.90
41965;DHT22;50120;53.250;8.702;2022-08-06T09:19:38;18.10;99.90
41965;DHT22;50120;53.250;8.702;2022-08-06T09:22:04;18.20;99.90
41965;DHT22;50120;53.250;8.702;2022-08-06T09:24:30;18.10;99.40
41965;DHT22;50120;53.250;8.702;2022-08-06T09:27:14;18.00;99.90
41965;DHT22;50120;53.250;8.702;2022-08-06T09:29:59;18.10;99.90
41965;DHT22;50120;53.250;8.702;2022-08-06T09:32:41;18.30;99.90
41965;DHT22;50120;53.250;8.702;2022-08-06T09:35:22;18.30;99.00
41965;DHT22;50120;53.250;8.702;2022-08-06T09:38:03;18.40;99.90
41965;DHT22;50120;53.250;8.702;2022-08-06T09:40:29;18.60;98.40
41965;DHT22;50120;53.250;8.702;2022-08-06T09:42:57;18.70;99.80
41965;DHT22;50120;53.250;8.702;2022-08-06T09:45:24;18.70;99.90
41965;DHT22;50120;53.250;8.702;2022-08-06T09:48:23;18.80;99.40
41965;DHT22;50120;53.250;8.702;2022-08-06T09:50:49;18.70;97.90
41965;DHT22;50120;53.250;8.702;2022-08-06T09:53:15;18.80;97.80
41965;DHT22;50120;53.250;8.702;2022-08-06T09:55:44;18.80;97.50
41965;DHT22;50120;53.250;8.702;2022-08-06T09:58:10;19.00;99.90
41965;DHT22;50120;53.250;8.702;2022-08-06T10:00:37;19.00;99.90
41965;DHT22;50120;53.250;8.702;2022-08-06T10:03:08;19.10;99.10
41965;DHT22;50120;53.250;8.702;2022-08-06T10:05:34;19.00;97.80
41965;DHT22;50120;53.250;8.702;2022-08-06T10:10:43;18.80;98.70
41965;DHT22;50120;53.250;8.702;2022-08-06T10:13:15;19.00;97.90
41965;DHT22;50120;53.250;8.702;2022-08-06T10:15:42;19.10;96.00
41965;DHT22;50120;53.250;8.702;2022-08-06T10:18:33;19.20;98.60
41965;DHT22;50120;53.250;8.702;2022-08-06T10:21:03;19.20;95.50
41965;DHT22;50120;53.250;8.702;2022-08-06T10:23:31;19.30;96.20
41965;DHT22;50120;53.250;8.702;2022-08-06T10:25:59;19.50;98.20
41965;DHT22;50120;53.250;8.702;2022-08-06T10:28:26;19.50;97.10
41965;DHT22;50120;53.250;8.702;2022-08-06T10:30:54;19.40;94.00
41965;DHT22;50120;53.250;8.702;2022-08-06T10:33:22;19.20;95.30
41965;DHT22;50120;53.250;8.702;2022-08-06T10:35:49;19.20;97.00
41965;DHT22;50120;53.250;8.702;2022-08-06T10:38:26;19.20;97.30
41965;DHT22;50120;53.250;8.702;2022-08-06T10:40:54;19.40;97.70
41965;DHT22;50120;53.250;8.702;2022-08-06T10:43:22;19.60;96.10
41965;DHT22;50120;53.250;8.702;2022-08-06T10:45:50;19.80;93.60
41965;DHT22;50120;53.250;8.702;2022-08-06T10:48:17;19.80;94.00
41965;DHT22;50120;53.250;8.702;2022-08-06T10:50:43;19.70;94.00
41965;DHT22;50120;53.250;8.702;2022-08-06T10:53:09;19.90;96.50
41965;DHT22;50120;53.250;8.702;2022-08-06T10:55:36;20.10;93.80
41965;DHT22;50120;53.250;8.702;2022-08-06T10:58:02;20.20;95.10
41965;DHT22;50120;53.250;8.702;2022-08-06T11:00:31;20.30;94.40
41965;DHT22;50120;53.250;8.702;2022-08-06T11:05:35;20.00;94.40
41965;DHT22;50120;53.250;8.702;2022-08-06T11:08:08;19.80;95.30
41965;DHT22;50120;53.250;8.702;2022-08-06T11:13:16;19.30;95.90
41965;DHT22;50120;53.250;8.702;2022-08-06T11:15:46;19.20;97.10
41965;DHT22;50120;53.250;8.702;2022-08-06T11:18:13;19.10;97.00
41965;DHT22;50120;53.250;8.702;2022-08-06T11:20:45;18.90;96.20
41965;DHT22;50120;53.250;8.702;2022-08-06T11:25:50;18.90;97.30
41965;DHT22;50120;53.250;8.702;2022-08-06T11:28:56;19.10;98.50
41965;DHT22;50120;53.250;8.702;2022-08-06T11:31:07;19.40;98.50
41965;DHT22;50120;53.250;8.702;2022-08-06T11:36:03;19.80;97.10
41965;DHT22;50120;53.250;8.702;2022-08-06T11:41:20;20.00;94.50
41965;DHT22;50120;53.250;8.702;2022-08-06T11:49:14;20.10;94.70
41965;DHT22;50120;53.250;8.702;2022-08-06T11:51:57;20.00;93.50
41965;DHT22;50120;53.250;8.702;2022-08-06T11:54:33;19.80;94.60
41965;DHT22;50120;53.250;8.702;2022-08-06T11:59:43;20.00;95.60
41965;DHT22;50120;53.250;8.702;2022-08-06T12:02:14;20.10;94.80
41965;DHT22;50120;53.250;8.702;2022-08-06T12:04:41;20.20;94.20
41965;DHT22;50120;53.250;8.702;2022-08-06T12:12:37;20.20;94.70
41965;DHT22;50120;53.250;8.702;2022-08-06T12:20:42;20.30;94.30
41965;DHT22;50120;53.250;8.702;2022-08-06T12:23:09;20.50;93.40
41965;DHT22;50120;53.250;8.702;2022-08-06T12:25:38;20.40;93.30
41965;DHT22;50120;53.250;8.702;2022-08-06T12:28:06;20.30;93.00
41965;DHT22;50120;53.250;8.702;2022-08-06T12:30:41;20.20;94.60
41965;DHT22;50120;53.250;8.702;2022-08-06T12:33:07;20.20;93.70
41965;DHT22;50120;53.250;8.702;2022-08-06T12:35:47;20.20;94.90
41965;DHT22;50120;53.250;8.702;2022-08-06T12:38:13;20.20;94.90
41965;DHT22;50120;53.250;8.702;2022-08-06T12:40:38;20.20;94.20
41965;DHT22;50120;53.250;8.702;2022-08-06T12:45:32;20.30;96.00
41965;DHT22;50120;53.250;8.702;2022-08-06T12:48:05;20.30;95.80
41965;DHT22;50120;53.250;8.702;2022-08-06T12:50:33;20.30;95.80
41965;DHT22;50120;53.250;8.702;2022-08-06T12:53:13;20.30;94.40
41965;DHT22;50120;53.250;8.702;2022-08-06T12:55:53;20.30;95.80
41965;DHT22;50120;53.250;8.702;2022-08-06T12:58:33;20.40;96.60
41965;DHT22;50120;53.250;8.702;2022-08-06T13:01:00;20.60;96.90
41965;DHT22;50120;53.250;8.702;2022-08-06T13:03:27;20.60;95.60
41965;DHT22;50120;53.250;8.702;2022-08-06T13:05:57;20.50;94.60
41965;DHT22;50120;53.250;8.702;2022-08-06T13:08:25;20.40;96.00
41965;DHT22;50120;53.250;8.702;2022-08-06T13:10:53;20.20;94.70
41965;DHT22;50120;53.250;8.702;2022-08-06T13:13:20;20.10;95.90
41965;DHT22;50120;53.250;8.702;2022-08-06T13:16:05;20.00;95.50
41965;DHT22;50120;53.250;8.702;2022-08-06T13:18:31;19.70;96.10
41965;DHT22;50120;53.250;8.702;2022-08-06T13:20:57;19.50;95.40
41965;DHT22;50120;53.250;8.702;2022-08-06T13:23:37;19.50;95.60
41965;DHT22;50120;53.250;8.702;2022-08-06T13:31:44;20.10;94.90
41965;DHT22;50120;53.250;8.702;2022-08-06T13:34:13;20.10;95.00
41965;DHT22;50120;53.250;8.702;2022-08-06T13:36:42;20.20;94.20
41965;DHT22;50120;53.250;8.702;2022-08-06T13:42:23;20.00;95.30
41965;DHT22;50120;53.250;8.702;2022-08-06T13:44:48;19.90;93.70
41965;DHT22;50120;53.250;8.702;2022-08-06T13:47:26;19.80;93.50
41965;DHT22;50120;53.250;8.702;2022-08-06T13:49:52;19.70;94.70
41965;DHT22;50120;53.250;8.702;2022-08-06T13:52:18;19.90;95.10
41965;DHT22;50120;53.250;8.702;2022-08-06T13:54:44;20.20;93.80
41965;DHT22;50120;53.250;8.702;2022-08-06T13:57:09;20.30;94.60
41965;DHT22;50120;53.250;8.702;2022-08-06T13:59:36;20.50;93.60
41965;DHT22;50120;53.250;8.702;2022-08-06T14:02:04;20.60;93.40
41965;DHT22;50120;53.250;8.702;2022-08-06T14:04:30;20.50;94.00
41965;DHT22;50120;53.250;8.702;2022-08-06T14:06:58;20.40;94.70
41965;DHT22;50120;53.250;8.702;2022-08-06T14:09:26;20.20;93.80
41965;DHT22;50120;53.250;8.702;2022-08-06T14:11:58;20.00;94.90
41965;DHT22;50120;53.250;8.702;2022-08-06T14:14:27;19.80;94.70
41965;DHT22;50120;53.250;8.702;2022-08-06T14:16:55;19.60;94.10
41965;DHT22;50120;53.250;8.702;2022-08-06T14:19:21;19.40;95.40
41965;DHT22;50120;53.250;8.702;2022-08-06T14:21:46;19.40;96.00
41965;DHT22;50120;53.250;8.702;2022-08-06T14:24:12;19.50;97.20
41965;DHT22;50120;53.250;8.702;2022-08-06T14:26:38;19.60;96.20
41965;DHT22;50120;53.250;8.702;2022-08-06T14:29:04;19.70;96.40
41965;DHT22;50120;53.250;8.702;2022-08-06T14:31:31;19.80;96.10
41965;DHT22;50120;53.250;8.702;2022-08-06T14:33:58;20.00;95.20
41965;DHT22;50120;53.250;8.702;2022-08-06T14:36:24;20.10;94.30
41965;DHT22;50120;53.250;8.702;2022-08-06T14:38:50;20.20;93.90
41965;DHT22;50120;53.250;8.702;2022-08-06T14:41:16;20.10;93.50
41965;DHT22;50120;53.250;8.702;2022-08-06T14:44:00;20.20;93.90
41965;DHT22;50120;53.250;8.702;2022-08-06T14:46:44;20.30;94.60
41965;DHT22;50120;53.250;8.702;2022-08-06T14:49:10;20.50;94.40
41965;DHT22;50120;53.250;8.702;2022-08-06T14:51:36;20.60;93.30
41965;DHT22;50120;53.250;8.702;2022-08-06T14:54:01;20.40;92.70
41965;DHT22;50120;53.250;8.702;2022-08-06T14:56:27;20.20;93.80
41965;DHT22;50120;53.250;8.702;2022-08-06T14:58:53;20.00;95.20
41965;DHT22;50120;53.250;8.702;2022-08-06T15:01:18;19.80;95.20
41965;DHT22;50120;53.250;8.702;2022-08-06T15:03:45;19.70;94.70
41965;DHT22;50120;53.250;8.702;2022-08-06T15:06:11;19.60;94.40
41965;DHT22;50120;53.250;8.702;2022-08-06T15:08:37;19.60;94.70
41965;DHT22;50120;53.250;8.702;2022-08-06T15:11:04;19.70;93.40
41965;DHT22;50120;53.250;8.702;2022-08-06T15:13:30;19.70;94.10
41965;DHT22;50120;53.250;8.702;2022-08-06T15:15:55;19.70;94.40
41965;DHT22;50120;53.250;8.702;2022-08-06T15:18:21;19.60;93.90
41965;DHT22;50120;53.250;8.702;2022-08-06T15:20:47;19.50;93.40
41965;DHT22;50120;53.250;8.702;2022-08-06T15:23:13;19.40;94.30
41965;DHT22;50120;53.250;8.702;2022-08-06T15:25:39;19.50;95.20
41965;DHT22;50120;53.250;8.702;2022-08-06T15:28:05;19.50;94.20
41965;DHT22;50120;53.250;8.702;2022-08-06T15:30:30;19.60;95.60
41965;DHT22;50120;53.250;8.702;2022-08-06T15:32:57;19.70;93.90
41965;DHT22;50120;53.250;8.702;2022-08-06T15:35:24;19.70;93.80
41965;DHT22;50120;53.250;8.702;2022-08-06T15:37:50;19.70;94.80
41965;DHT22;50120;53.250;8.702;2022-08-06T15:40:18;19.60;94.20
41965;DHT22;50120;53.250;8.702;2022-08-06T15:42:44;19.60;93.90
41965;DHT22;50120;53.250;8.702;2022-08-06T15:45:10;19.60;93.90
41965;DHT22;50120;53.250;8.702;2022-08-06T15:47:36;19.50;94.20
41965;DHT22;50120;53.250;8.702;2022-08-06T15:50:02;19.40;94.00
41965;DHT22;50120;53.250;8.702;2022-08-06T15:52:28;19.30;94.20
41965;DHT22;50120;53.250;8.702;2022-08-06T15:54:54;19.30;94.40
41965;DHT22;50120;53.250;8.702;2022-08-06T15:57:20;19.20;94.20
41965;DHT22;50120;53.250;8.702;2022-08-06T15:59:48;19.00;93.80
41965;DHT22;50120;53.250;8.702;2022-08-06T16:02:14;19.00;93.60
41965;DHT22;50120;53.250;8.702;2022-08-06T16:04:39;18.90;93.40
41965;DHT22;50120;53.250;8.702;2022-08-06T16:07:06;18.90;93.30
41965;DHT22;50120;53.250;8.702;2022-08-06T16:09:34;18.90;93.70
41965;DHT22;50120;53.250;8.702;2022-08-06T16:12:00;18.80;94.30
41965;DHT22;50120;53.250;8.702;2022-08-06T16:14:26;18.80;94.90
41965;DHT22;50120;53.250;8.702;2022-08-06T16:16:52;18.70;95.20
41965;DHT22;50120;53.250;8.702;2022-08-06T16:19:17;18.70;93.90
41965;DHT22;50120;53.250;8.702;2022-08-06T16:21:43;18.70;94.60
41965;DHT22;50120;53.250;8.702;2022-08-06T16:24:09;18.70;93.10
41965;DHT22;50120;53.250;8.702;2022-08-06T16:26:35;18.70;94.10
41965;DHT22;50120;53.250;8.702;2022-08-06T16:29:00;18.70;93.30
41965;DHT22;50120;53.250;8.702;2022-08-06T16:31:26;18.70;93.50
41965;DHT22;50120;53.250;8.702;2022-08-06T16:33:52;18.70;93.80
41965;DHT22;50120;53.250;8.702;2022-08-06T16:36:17;18.70;93.50
41965;DHT22;50120;53.250;8.702;2022-08-06T16:38:43;18.60;93.70
41965;DHT22;50120;53.250;8.702;2022-08-06T16:41:09;18.60;93.70
41965;DHT22;50120;53.250;8.702;2022-08-06T16:43:34;18.50;93.50
41965;DHT22;50120;53.250;8.702;2022-08-06T16:46:00;18.50;94.30
41965;DHT22;50120;53.250;8.702;2022-08-06T16:48:26;18.50;94.00
41965;DHT22;50120;53.250;8.702;2022-08-06T16:50:52;18.50;94.30
41965;DHT22;50120;53.250;8.702;2022-08-06T16:53:17;18.50;94.30
41965;DHT22;50120;53.250;8.702;2022-08-06T16:55:43;18.50;93.90